Carmona, Texas
Current Conditions -  °F | °C
As of 9:53 AM on Thursday 29 Jan 2015 (Local Time) from KLFK Reporting Station
Few Clouds Few Clouds  
Wind Chill: 67°   Ceiling: Unl
Heat Index: 67°   Visibility: 10mi
Dew Point: 56°   Wind: 10mph
Humidity: 68%   Direction: 230°SW
Pressure: 30.23"   Gusts: NA
Location:  31.024°N, 94.7686°W
Report Text: KLFK 291553Z AUTO 23009KT 10SM FEW012 19/13 A3023 RMK AO2 SLP235 T01940133
Loading
Personal Weather Stations






























Interactive Weather Map New forecast layout! Learn more

10-Day Weather Forecast

Advertisements
Track Severe Weather on mobile